| time (UTC) | temp F | wind direction | speed MPH | gust MPH | rain 1hr in | rain 24hr in | rain mn in | humidity % | barometer mb |
| 20260504205505 | 78 | 72 | 7.0 | 10.0 | 0.00 | 0.62 | 0.18 | 82 | 1011.2 |
| 20260504205004 | 78 | 114 | 3.0 | 14.0 | 0.00 | 0.62 | 0.18 | 81 | 1011.1 |
| 20260504204004 | 77 | 95 | 6.0 | 15.0 | 0.00 | 0.62 | 0.18 | 81 | 1010.3 |
| 20260504203504 | 77 | 93 | 6.0 | 12.0 | 0.00 | 0.62 | 0.18 | 81 | 1010.7 |
| 20260504203004 | 77 | 91 | 9.0 | 14.0 | 0.00 | 0.62 | 0.18 | 83 | 1011.6 |
| 20260504202504 | 77 | 84 | 6.0 | 12.0 | 0.00 | 0.62 | 0.18 | 83 | 1011.8 |
| 20260504202004 | 77 | 84 | 7.0 | 13.0 | 0.00 | 0.62 | 0.18 | 83 | 1011.6 |
| 20260504201504 | 77 | 75 | 7.0 | 14.0 | 0.00 | 0.62 | 0.18 | 82 | 1010.9 |
| 20260504201003 | 77 | 99 | 7.0 | 12.0 | 0.00 | 0.62 | 0.18 | 81 | 1010.3 |
| 20260504200504 | 77 | 75 | 6.0 | 12.0 | 0.00 | 0.62 | 0.18 | 82 | 1010.6 |
| 20260504200004 | 76 | 78 | 7.0 | 13.0 | 0.01 | 0.62 | 0.18 | 84 | 1011.2 |
| 20260504195504 | 76 | 94 | 8.0 | 15.0 | 0.01 | 0.62 | 0.18 | 85 | 1011.6 |
| 20260504195003 | 76 | 114 | 4.0 | 13.0 | 0.01 | 0.62 | 0.18 | 86 | 1012.5 |
| 20260504194504 | 76 | 85 | 7.0 | 13.0 | 0.01 | 0.62 | 0.18 | 86 | 1012.3 |
| 20260504194004 | 77 | 74 | 6.0 | 13.0 | 0.01 | 0.62 | 0.18 | 86 | 1012.3 |
| 20260504193504 | 76 | 52 | 5.0 | 12.0 | 0.01 | 0.62 | 0.18 | 87 | 1012.1 |
| 20260504193004 | 76 | 79 | 6.0 | 14.0 | 0.01 | 0.62 | 0.18 | 88 | 1012.9 |
| 20260504192504 | 76 | 94 | 12.0 | 16.0 | 0.01 | 0.62 | 0.18 | 87 | 1012.5 |
| 20260504192004 | 75 | 98 | 7.0 | 12.0 | 0.01 | 0.62 | 0.18 | 89 | 1013.2 |
| 20260504191504 | 75 | 75 | 7.0 | 14.0 | 0.01 | 0.62 | 0.18 | 91 | 1013.9 |
| 20260504191003 | 74 | 98 | 9.0 | 14.0 | 0.00 | 0.62 | 0.18 | 90 | 1014.0 |
| 20260504190504 | 74 | 80 | 8.0 | 15.0 | 0.02 | 0.62 | 0.18 | 90 | 1014.0 |
| 20260504190004 | 74 | 94 | 7.0 | 18.0 | 0.04 | 0.61 | 0.17 | 90 | 1014.0 |
| 20260504185005 | 74 | 87 | 7.0 | 13.0 | 0.04 | 0.61 | 0.17 | 91 | 1014.3 |
| 20260504184503 | 74 | 81 | 6.0 | 15.0 | 0.04 | 0.61 | 0.17 | 92 | 1014.6 |
| 20260504184004 | 74 | 62 | 7.0 | 13.0 | 0.04 | 0.61 | 0.17 | 92 | 1014.4 |
| 20260504183505 | 74 | 72 | 7.0 | 14.0 | 0.04 | 0.61 | 0.17 | 93 | 1014.4 |
| 20260504181504 | 74 | 66 | 7.0 | 13.0 | 0.07 | 0.61 | 0.18 | 94 | 1014.5 |
| 20260504181003 | 74 | 84 | 5.0 | 14.0 | 0.07 | 0.61 | 0.18 | 94 | 1014.5 |
| 20260504180504 | 75 | 38 | 7.0 | 9.0 | 0.03 | 0.59 | 0.17 | 93 | 1014.6 |
| 20260504180003 | 75 | 48 | 6.0 | 9.0 | 0.01 | 0.56 | 0.14 | 93 | 1014.7 |
| 20260504175504 | 75 | 70 | 6.0 | 9.0 | 0.01 | 0.56 | 0.13 | 94 | 1014.6 |
| 20260504175004 | 75 | 76 | 6.0 | 9.0 | 0.03 | 0.56 | 0.13 | 94 | 1014.6 |
| 20260504174504 | 75 | 93 | 5.0 | 9.0 | 0.06 | 0.56 | 0.13 | 95 | 1014.6 |
| 20260504174004 | 75 | 63 | 5.0 | 7.0 | 0.06 | 0.56 | 0.13 | 95 | 1014.6 |
| 20260504173504 | 74 | 89 | 2.0 | 8.0 | 0.07 | 0.56 | 0.13 | 95 | 1014.6 |
| 20260504172503 | 74 | 93 | 3.0 | 8.0 | 0.07 | 0.56 | 0.13 | 94 | 1014.5 |
| 20260504172004 | 74 | 44 | 3.0 | 8.0 | 0.14 | 0.55 | 0.21 | 93 | 1014.5 |
| 20260504151004 | 78 | 76 | 2.0 | 3.0 | 0.00 | 0.42 | 0.07 | 84 | 1012.7 |
| 20260504150504 | 78 | 34 | 3.0 | 5.0 | 0.00 | 0.42 | 0.07 | 85 | 1013.0 |
| 20260504141003 | 75 | 20 | 2.0 | 6.0 | 0.00 | 0.42 | 0.07 | 94 | 1015.7 |
| 20260504140503 | 75 | 23 | 3.0 | 6.0 | 0.00 | 0.42 | 0.07 | 94 | 1015.6 |
| 20260504130503 | 75 | 28 | 2.0 | 3.0 | 0.00 | 0.61 | 0.07 | 98 | 1014.9 |
| 20260504110504 | 73 | 15 | 1.0 | 5.0 | 0.00 | 1.15 | 0.07 | 99 | 1014.4 |
| 20260504100504 | 74 | 258 | 1.0 | 5.0 | 0.00 | 1.29 | 0.07 | 98 | 1014.2 |
| 20260504081503 | 74 | 136 | 0.0 | 1.0 | 0.07 | 1.35 | 0.07 | 97 | 1013.1 |
| 20260504081004 | 74 | 173 | 0.0 | 1.0 | 0.07 | 1.35 | 0.07 | 97 | 1013.3 |
| 20260504080504 | 74 | 76 | 1.0 | 2.0 | 0.07 | 1.35 | 0.07 | 97 | 1013.3 |
| 20260504050504 | 75 | 342 | 0.0 | 1.0 | 0.00 | 1.28 | 0.00 | 95 | 1015.1 |
| 20260504045004 | 75 | 169 | 0.0 | 1.0 | 0.00 | 1.28 | 0.00 | 95 | 1015.1 |
| 20260504044003 | 75 | 162 | 0.0 | 1.0 | 0.00 | 1.28 | 0.00 | 95 | 1015.0 |
| 20260504043504 | 75 | 117 | 0.0 | 0.0 | 0.00 | 1.28 | 0.00 | 95 | 1014.9 |
| 20260504043004 | 75 | 63 | 0.0 | 1.0 | 0.00 | 1.28 | 0.00 | 95 | 1014.8 |
| 20260504042504 | 75 | 75 | 1.0 | 1.0 | 0.00 | 1.28 | 0.00 | 95 | 1014.8 |
| 20260504042005 | 75 | 117 | 0.0 | 2.0 | 0.00 | 1.28 | 0.00 | 95 | 1014.9 |
| 20260504041504 | 75 | 61 | 1.0 | 2.0 | 0.00 | 1.28 | 0.00 | 95 | 1014.8 |
| 20260504041003 | 75 | 84 | 1.0 | 3.0 | 0.00 | 1.28 | 0.00 | 95 | 1014.9 |
| 20260504035504 | 75 | 51 | 2.0 | 3.0 | 0.00 | 1.28 | 0.93 | 95 | 1015.0 |
| 20260504035004 | 75 | 79 | 1.0 | 3.0 | 0.00 | 1.28 | 0.93 | 95 | 1015.0 |
| 20260504034504 | 75 | 63 | 2.0 | 3.0 | 0.00 | 1.28 | 0.93 | 95 | 1014.9 |
| 20260504034003 | 75 | 41 | 2.0 | 3.0 | 0.00 | 1.28 | 0.93 | 95 | 1015.0 |
| 20260504033504 | 75 | 63 | 3.0 | 5.0 | 0.00 | 1.28 | 0.93 | 96 | 1015.0 |
| 20260504032504 | 75 | 91 | 1.0 | 3.0 | 0.00 | 1.28 | 0.93 | 96 | 1015.3 |
| 20260504031504 | 74 | 137 | 0.0 | 2.0 | 0.00 | 1.28 | 0.93 | 95 | 1015.3 |
| 20260504031004 | 74 | 97 | 1.0 | 2.0 | 0.00 | 1.28 | 0.93 | 95 | 1015.4 |
| 20260504030004 | 74 | 111 | 0.0 | 1.0 | 0.00 | 1.28 | 0.93 | 95 | 1015.3 |
| 20260504024504 | 74 | 84 | 1.0 | 2.0 | 0.00 | 1.28 | 0.93 | 95 | 1015.1 |
| 20260504024004 | 74 | 82 | 0.0 | 2.0 | 0.00 | 1.28 | 0.93 | 95 | 1015.2 |
| 20260504023504 | 74 | 111 | 0.0 | 2.0 | 0.00 | 1.28 | 0.93 | 95 | 1015.3 |
| 20260504023004 | 74 | 100 | 0.0 | 2.0 | 0.00 | 1.28 | 0.93 | 95 | 1015.3 |
| 20260504022504 | 74 | 99 | 1.0 | 2.0 | 0.00 | 1.28 | 0.93 | 95 | 1015.2 |
| 20260504022004 | 74 | 83 | 0.0 | 2.0 | 0.00 | 1.28 | 0.93 | 95 | 1015.1 |
| 20260504021504 | 74 | 51 | 0.0 | 2.0 | 0.00 | 1.28 | 0.93 | 95 | 1015.0 |
| 20260504021004 | 74 | 39 | 1.0 | 2.0 | 0.00 | 1.28 | 0.93 | 95 | 1015.0 |
| 20260504020504 | 74 | 46 | 0.0 | 1.0 | 0.00 | 1.28 | 0.93 | 95 | 1015.0 |
| 20260504020004 | 74 | 30 | 0.0 | 3.0 | 0.00 | 1.28 | 0.93 | 94 | 1015.0 |
| 20260504015503 | 74 | 84 | 2.0 | 3.0 | 0.00 | 1.28 | 0.93 | 94 | 1015.0 |
| 20260504013504 | 74 | 72 | 2.0 | 3.0 | 0.00 | 1.28 | 0.93 | 94 | 1014.9 |
| 20260504013003 | 74 | 42 | 3.0 | 6.0 | 0.00 | 1.28 | 0.93 | 94 | 1014.8 |
| 20260504012504 | 74 | 19 | 2.0 | 8.0 | 0.00 | 1.28 | 0.93 | 94 | 1014.7 |
| 20260504012004 | 75 | 27 | 3.0 | 8.0 | 0.00 | 1.28 | 0.93 | 94 | 1014.6 |
| 20260504011504 | 75 | 45 | 3.0 | 6.0 | 0.00 | 1.28 | 0.93 | 94 | 1014.5 |
| 20260504011003 | 75 | 15 | 1.0 | 5.0 | 0.00 | 1.28 | 0.93 | 94 | 1014.6 |
| 20260504010504 | 75 | 52 | 4.0 | 7.0 | 0.00 | 1.28 | 0.93 | 94 | 1014.5 |
| 20260504010003 | 75 | 45 | 3.0 | 6.0 | 0.00 | 1.28 | 0.93 | 94 | 1014.5 |
| 20260504005004 | 75 | 33 | 3.0 | 5.0 | 0.00 | 1.28 | 0.93 | 93 | 1014.5 |
| 20260504004504 | 75 | 34 | 3.0 | 7.0 | 0.00 | 1.28 | 0.93 | 93 | 1014.4 |
| 20260504003504 | 75 | 52 | 4.0 | 6.0 | 0.00 | 1.28 | 0.93 | 93 | 1014.2 |
| 20260504003005 | 75 | 47 | 3.0 | 7.0 | 0.00 | 1.28 | 0.93 | 93 | 1014.2 |
| 20260504002503 | 75 | 75 | 3.0 | 7.0 | 0.00 | 1.28 | 0.93 | 93 | 1014.2 |
| 20260504001504 | 75 | 328 | 1.0 | 2.0 | 0.00 | 1.28 | 0.93 | 93 | 1014.3 |
| 20260504001003 | 75 | 77 | 1.0 | 3.0 | 0.00 | 1.28 | 0.93 | 93 | 1014.3 |
| 20260504000506 | 75 | 53 | 2.0 | 6.0 | 0.00 | 1.28 | 0.93 | 93 | 1014.2 |
| 20260504000004 | 75 | 48 | 3.0 | 5.0 | 0.00 | 1.28 | 0.93 | 93 | 1014.0 |
| 20260503235503 | 75 | 35 | 3.0 | 6.0 | 0.00 | 1.28 | 0.93 | 93 | 1014.0 |
| 20260503235004 | 75 | 48 | 4.0 | 6.0 | 0.00 | 1.28 | 0.93 | 93 | 1013.9 |
| 20260503234504 | 75 | 53 | 2.0 | 7.0 | 0.00 | 1.28 | 0.93 | 93 | 1013.9 |
| 20260503234004 | 76 | 52 | 3.0 | 8.0 | 0.00 | 1.28 | 0.93 | 93 | 1013.8 |
| 20260503233503 | 76 | 37 | 2.0 | 6.0 | 0.00 | 1.28 | 0.93 | 93 | 1013.8 |
| 20260503233003 | 76 | 51 | 3.0 | 6.0 | 0.00 | 1.28 | 0.93 | 93 | 1013.7 |
| 20260503232504 | 76 | 60 | 2.0 | 6.0 | 0.09 | 1.28 | 0.93 | 93 | 1013.8 |
| 20260503232003 | 76 | 44 | 3.0 | 6.0 | 0.11 | 1.28 | 0.96 | 93 | 1013.8 |
| 20260503231504 | 76 | 52 | 1.0 | 3.0 | 0.31 | 1.28 | 0.96 | 93 | 1013.8 |
| 20260503231004 | 76 | 47 | 1.0 | 3.0 | 0.34 | 1.28 | 0.96 | 93 | 1013.8 |
| 20260503230504 | 75 | 81 | 2.0 | 3.0 | 0.34 | 1.28 | 0.96 | 93 | 1013.7 |
| 20260503230004 | 75 | 99 | 1.0 | 7.0 | 0.34 | 1.28 | 0.96 | 93 | 1013.5 |
| 20260503225505 | 75 | 62 | 3.0 | 5.0 | 0.34 | 1.28 | 0.96 | 93 | 1013.5 |
| 20260503225004 | 75 | 60 | 3.0 | 6.0 | 0.34 | 1.28 | 0.96 | 93 | 1013.4 |
| 20260503224004 | 75 | 71 | 2.0 | 5.0 | 0.34 | 1.28 | 0.96 | 92 | 1013.2 |
| 20260503223504 | 75 | 42 | 5.0 | 7.0 | 0.34 | 1.28 | 0.96 | 92 | 1013.3 |
| 20260503223004 | 76 | 71 | 3.0 | 7.0 | 0.34 | 1.28 | 0.96 | 91 | 1013.4 |
| 20260503222504 | 76 | 166 | 2.0 | 8.0 | 0.23 | 1.16 | 0.84 | 90 | 1013.7 |
| 20260503222004 | 77 | 156 | 2.0 | 7.0 | 0.23 | 1.16 | 0.84 | 89 | 1013.7 |
| 20260503221003 | 77 | 85 | 3.0 | 8.0 | 0.00 | 0.94 | 0.62 | 87 | 1013.5 |
| 20260503220503 | 77 | 92 | 5.0 | 8.0 | 0.00 | 0.94 | 0.62 | 86 | 1013.5 |
| 20260503220004 | 77 | 97 | 5.0 | 7.0 | 0.00 | 0.94 | 0.62 | 86 | 1013.6 |
| 20260503215504 | 77 | 63 | 3.0 | 7.0 | 0.00 | 0.94 | 0.62 | 86 | 1013.5 |
| 20260503215003 | 77 | 44 | 4.0 | 8.0 | 0.00 | 0.94 | 0.62 | 85 | 1013.5 |
| 20260503214504 | 77 | 60 | 3.0 | 8.0 | 0.00 | 0.94 | 0.62 | 85 | 1013.5 |
| 20260503214004 | 77 | 69 | 3.0 | 8.0 | 0.00 | 0.94 | 0.62 | 84 | 1013.3 |
| 20260503213504 | 78 | 85 | 5.0 | 10.0 | 0.00 | 0.94 | 0.62 | 84 | 1013.0 |
| 20260503213003 | 78 | 82 | 6.0 | 10.0 | 0.00 | 0.94 | 0.62 | 84 | 1013.2 |
| 20260503212004 | 78 | 73 | 5.0 | 8.0 | 0.00 | 0.94 | 0.62 | 85 | 1013.4 |
| 20260503211503 | 78 | 69 | 3.0 | 8.0 | 0.00 | 0.94 | 0.62 | 84 | 1013.5 |
| 20260503211003 | 78 | 84 | 5.0 | 7.0 | 0.00 | 0.94 | 0.62 | 84 | 1013.5 |
| 20260503210504 | 78 | 82 | 3.0 | 7.0 | 0.00 | 0.94 | 0.62 | 84 | 1013.6 |